sensor_id;sensor_type;location;lat;lon;timestamp;pressure;altitude;pressure_sealevel;temperature;humidity
7026;BME280;3554;42.132;24.786;2023-07-31T00:01:12;98662.66;;;25.13;100.00
7026;BME280;3554;42.132;24.786;2023-07-31T00:03:38;98662.16;;;25.09;100.00
7026;BME280;3554;42.132;24.786;2023-07-31T00:06:05;98657.47;;;25.03;100.00
7026;BME280;3554;42.132;24.786;2023-07-31T00:08:32;98674.88;;;24.99;100.00
7026;BME280;3554;42.132;24.786;2023-07-31T00:11:00;98674.22;;;25.05;100.00
7026;BME280;3554;42.132;24.786;2023-07-31T00:13:27;98671.56;;;24.89;100.00
7026;BME280;3554;42.132;24.786;2023-07-31T00:15:54;98662.53;;;24.98;100.00
7026;BME280;3554;42.132;24.786;2023-07-31T00:18:21;98670.03;;;25.11;100.00
7026;BME280;3554;42.132;24.786;2023-07-31T00:20:47;98681.19;;;25.22;100.00
7026;BME280;3554;42.132;24.786;2023-07-31T00:23:14;98686.38;;;25.32;100.00
7026;BME280;3554;42.132;24.786;2023-07-31T00:25:41;98687.41;;;25.39;100.00
7026;BME280;3554;42.132;24.786;2023-07-31T00:28:10;98668.47;;;25.32;100.00
7026;BME280;3554;42.132;24.786;2023-07-31T00:30:37;98683.06;;;25.38;100.00
7026;BME280;3554;42.132;24.786;2023-07-31T00:33:03;98689.41;;;25.45;100.00
7026;BME280;3554;42.132;24.786;2023-07-31T00:35:30;98693.56;;;25.31;100.00
7026;BME280;3554;42.132;24.786;2023-07-31T00:37:58;98685.03;;;25.44;100.00
7026;BME280;3554;42.132;24.786;2023-07-31T00:40:24;98689.09;;;25.40;100.00
7026;BME280;3554;42.132;24.786;2023-07-31T00:42:51;98689.41;;;25.29;100.00
7026;BME280;3554;42.132;24.786;2023-07-31T00:45:20;98692.94;;;25.21;100.00
7026;BME280;3554;42.132;24.786;2023-07-31T00:47:48;98692.09;;;25.37;100.00
7026;BME280;3554;42.132;24.786;2023-07-31T00:50:15;98685.22;;;25.42;100.00
7026;BME280;3554;42.132;24.786;2023-07-31T00:52:42;98657.78;;;25.16;100.00
7026;BME280;3554;42.132;24.786;2023-07-31T00:55:09;98682.03;;;25.31;100.00
7026;BME280;3554;42.132;24.786;2023-07-31T00:57:36;98699.16;;;25.22;100.00
7026;BME280;3554;42.132;24.786;2023-07-31T01:00:05;98703.31;;;25.32;100.00
7026;BME280;3554;42.132;24.786;2023-07-31T01:02:34;98695.94;;;25.34;100.00
7026;BME280;3554;42.132;24.786;2023-07-31T01:05:02;98696.59;;;25.28;100.00
7026;BME280;3554;42.132;24.786;2023-07-31T01:07:35;98692.13;;;25.13;100.00
7026;BME280;3554;42.132;24.786;2023-07-31T01:10:08;98696.97;;;25.17;100.00
7026;BME280;3554;42.132;24.786;2023-07-31T01:12:38;98697.78;;;25.26;100.00
7026;BME280;3554;42.132;24.786;2023-07-31T01:15:06;98689.25;;;25.22;100.00
7026;BME280;3554;42.132;24.786;2023-07-31T01:17:37;98709.34;;;25.26;100.00
7026;BME280;3554;42.132;24.786;2023-07-31T01:20:09;98697.97;;;25.16;100.00
7026;BME280;3554;42.132;24.786;2023-07-31T01:22:56;98694.63;;;25.06;100.00
7026;BME280;3554;42.132;24.786;2023-07-31T01:28:13;98692.63;;;24.52;100.00
7026;BME280;3554;42.132;24.786;2023-07-31T01:30:43;98702.31;;;24.69;100.00
7026;BME280;3554;42.132;24.786;2023-07-31T01:33:11;98694.13;;;24.63;100.00
7026;BME280;3554;42.132;24.786;2023-07-31T01:35:38;98695.63;;;24.33;100.00
7026;BME280;3554;42.132;24.786;2023-07-31T01:38:05;98699.25;;;24.16;100.00
7026;BME280;3554;42.132;24.786;2023-07-31T01:40:32;98696.75;;;24.06;100.00
7026;BME280;3554;42.132;24.786;2023-07-31T01:42:59;98699.88;;;24.02;100.00
7026;BME280;3554;42.132;24.786;2023-07-31T01:45:27;98684.31;;;23.97;100.00
7026;BME280;3554;42.132;24.786;2023-07-31T01:47:54;98700.56;;;24.04;100.00
7026;BME280;3554;42.132;24.786;2023-07-31T01:50:21;98695.72;;;24.07;100.00
7026;BME280;3554;42.132;24.786;2023-07-31T01:52:47;98687.72;;;24.07;100.00
7026;BME280;3554;42.132;24.786;2023-07-31T01:55:14;98694.75;;;24.16;100.00
7026;BME280;3554;42.132;24.786;2023-07-31T01:57:41;98690.72;;;24.12;100.00
7026;BME280;3554;42.132;24.786;2023-07-31T02:00:08;98684.06;;;24.16;100.00
7026;BME280;3554;42.132;24.786;2023-07-31T02:02:36;98680.88;;;24.21;100.00
7026;BME280;3554;42.132;24.786;2023-07-31T02:05:04;98687.22;;;24.12;100.00
7026;BME280;3554;42.132;24.786;2023-07-31T02:07:31;98680.53;;;24.08;100.00
7026;BME280;3554;42.132;24.786;2023-07-31T02:09:57;98693.44;;;24.28;100.00
7026;BME280;3554;42.132;24.786;2023-07-31T02:12:24;98691.25;;;24.32;100.00
7026;BME280;3554;42.132;24.786;2023-07-31T02:14:51;98690.78;;;24.36;100.00
7026;BME280;3554;42.132;24.786;2023-07-31T02:17:18;98690.94;;;24.35;100.00
7026;BME280;3554;42.132;24.786;2023-07-31T02:19:46;98690.03;;;24.10;100.00
7026;BME280;3554;42.132;24.786;2023-07-31T02:22:13;98688.91;;;24.21;100.00
7026;BME280;3554;42.132;24.786;2023-07-31T02:24:40;98681.03;;;24.11;100.00
7026;BME280;3554;42.132;24.786;2023-07-31T02:27:07;98694.75;;;24.16;100.00
7026;BME280;3554;42.132;24.786;2023-07-31T02:29:33;98690.06;;;24.18;100.00
7026;BME280;3554;42.132;24.786;2023-07-31T02:32:00;98691.44;;;24.22;100.00
7026;BME280;3554;42.132;24.786;2023-07-31T02:34:27;98679.06;;;24.29;100.00
7026;BME280;3554;42.132;24.786;2023-07-31T02:36:55;98669.53;;;24.27;100.00
7026;BME280;3554;42.132;24.786;2023-07-31T02:39:22;98666.88;;;24.35;100.00
7026;BME280;3554;42.132;24.786;2023-07-31T02:41:49;98672.22;;;24.43;100.00
7026;BME280;3554;42.132;24.786;2023-07-31T02:44:15;98617.69;;;24.28;100.00
7026;BME280;3554;42.132;24.786;2023-07-31T02:46:42;98664.22;;;24.51;100.00
7026;BME280;3554;42.132;24.786;2023-07-31T02:49:09;98663.03;;;24.54;100.00
7026;BME280;3554;42.132;24.786;2023-07-31T02:51:36;98664.22;;;24.51;100.00
7026;BME280;3554;42.132;24.786;2023-07-31T02:54:04;98656.16;;;24.59;100.00
7026;BME280;3554;42.132;24.786;2023-07-31T02:56:31;98644.94;;;24.64;100.00
7026;BME280;3554;42.132;24.786;2023-07-31T02:58:57;98652.84;;;24.73;100.00
7026;BME280;3554;42.132;24.786;2023-07-31T03:01:24;98656.50;;;24.64;100.00
7026;BME280;3554;42.132;24.786;2023-07-31T03:03:51;98644.31;;;24.62;100.00
7026;BME280;3554;42.132;24.786;2023-07-31T03:06:18;98631.91;;;24.53;100.00
7026;BME280;3554;42.132;24.786;2023-07-31T03:08:45;98639.59;;;24.64;100.00
7026;BME280;3554;42.132;24.786;2023-07-31T03:11:13;98634.09;;;24.65;100.00
7026;BME280;3554;42.132;24.786;2023-07-31T03:13:40;98635.41;;;24.61;100.00
7026;BME280;3554;42.132;24.786;2023-07-31T03:16:07;98633.06;;;24.66;100.00
7026;BME280;3554;42.132;24.786;2023-07-31T03:18:34;98637.75;;;24.64;100.00
7026;BME280;3554;42.132;24.786;2023-07-31T03:21:01;98634.78;;;24.51;100.00
7026;BME280;3554;42.132;24.786;2023-07-31T03:23:28;98638.09;;;24.37;100.00
7026;BME280;3554;42.132;24.786;2023-07-31T03:25:58;98632.00;;;23.95;100.00
7026;BME280;3554;42.132;24.786;2023-07-31T03:28:26;98634.28;;;23.82;100.00
7026;BME280;3554;42.132;24.786;2023-07-31T03:30:53;98621.81;;;23.41;100.00
7026;BME280;3554;42.132;24.786;2023-07-31T03:33:20;98623.72;;;22.97;100.00
7026;BME280;3554;42.132;24.786;2023-07-31T03:35:46;98644.72;;;22.92;100.00
7026;BME280;3554;42.132;24.786;2023-07-31T03:38:13;98668.16;;;22.80;100.00
7026;BME280;3554;42.132;24.786;2023-07-31T03:40:40;98714.06;;;22.66;100.00
7026;BME280;3554;42.132;24.786;2023-07-31T03:43:07;98792.06;;;22.78;100.00
7026;BME280;3554;42.132;24.786;2023-07-31T03:45:35;98861.63;;;22.76;100.00
7026;BME280;3554;42.132;24.786;2023-07-31T03:48:03;98953.34;;;22.75;100.00
7026;BME280;3554;42.132;24.786;2023-07-31T03:50:30;99034.25;;;22.76;100.00
7026;BME280;3554;42.132;24.786;2023-07-31T03:52:57;99121.69;;;22.55;100.00
7026;BME280;3554;42.132;24.786;2023-07-31T03:55:23;99193.28;;;22.50;100.00
7026;BME280;3554;42.132;24.786;2023-07-31T03:57:50;99284.22;;;22.27;100.00
7026;BME280;3554;42.132;24.786;2023-07-31T04:00:17;99465.19;;;21.81;100.00
7026;BME280;3554;42.132;24.786;2023-07-31T04:02:46;99739.59;;;21.61;100.00
7026;BME280;3554;42.132;24.786;2023-07-31T04:05:12;99985.09;;;21.33;100.00
7026;BME280;3554;42.132;24.786;2023-07-31T04:07:39;100161.03;;;21.18;100.00
7026;BME280;3554;42.132;24.786;2023-07-31T04:10:06;100306.75;;;21.16;100.00
7026;BME280;3554;42.132;24.786;2023-07-31T04:12:33;100399.78;;;21.19;100.00
7026;BME280;3554;42.132;24.786;2023-07-31T04:15:00;100467.56;;;21.28;100.00
7026;BME280;3554;42.132;24.786;2023-07-31T04:17:27;100503.16;;;21.27;100.00
7026;BME280;3554;42.132;24.786;2023-07-31T04:19:55;100525.59;;;21.23;100.00
7026;BME280;3554;42.132;24.786;2023-07-31T04:22:22;100568.13;;;21.24;100.00
7026;BME280;3554;42.132;24.786;2023-07-31T04:24:49;100591.88;;;21.27;100.00
7026;BME280;3554;42.132;24.786;2023-07-31T04:27:15;100610.03;;;21.35;100.00
7026;BME280;3554;42.132;24.786;2023-07-31T04:29:42;100615.06;;;21.40;100.00
7026;BME280;3554;42.132;24.786;2023-07-31T04:32:11;100586.50;;;21.42;100.00
7026;BME280;3554;42.132;24.786;2023-07-31T04:34:38;100587.31;;;21.56;100.00
7026;BME280;3554;42.132;24.786;2023-07-31T04:37:06;100571.78;;;21.75;100.00
7026;BME280;3554;42.132;24.786;2023-07-31T04:39:33;100565.41;;;21.78;100.00
7026;BME280;3554;42.132;24.786;2023-07-31T04:42:00;100481.34;;;21.60;100.00
7026;BME280;3554;42.132;24.786;2023-07-31T04:44:26;100480.25;;;21.89;100.00
7026;BME280;3554;42.132;24.786;2023-07-31T04:46:53;100441.75;;;21.93;100.00
7026;BME280;3554;42.132;24.786;2023-07-31T04:49:20;100380.84;;;21.87;100.00
7026;BME280;3554;42.132;24.786;2023-07-31T04:51:47;100340.84;;;21.99;100.00
7026;BME280;3554;42.132;24.786;2023-07-31T04:54:15;100276.50;;;22.27;100.00
7026;BME280;3554;42.132;24.786;2023-07-31T04:56:42;100201.81;;;22.27;100.00
7026;BME280;3554;42.132;24.786;2023-07-31T04:59:09;100137.25;;;22.46;100.00
7026;BME280;3554;42.132;24.786;2023-07-31T05:01:36;100014.97;;;22.40;100.00
7026;BME280;3554;42.132;24.786;2023-07-31T05:04:03;99946.16;;;22.77;100.00
7026;BME280;3554;42.132;24.786;2023-07-31T05:06:29;99831.53;;;22.96;100.00
7026;BME280;3554;42.132;24.786;2023-07-31T05:08:56;99742.75;;;23.03;100.00
7026;BME280;3554;42.132;24.786;2023-07-31T05:11:24;99641.41;;;23.02;100.00
7026;BME280;3554;42.132;24.786;2023-07-31T05:13:51;99619.31;;;23.00;100.00
7026;BME280;3554;42.132;24.786;2023-07-31T05:16:18;99567.13;;;23.26;100.00
7026;BME280;3554;42.132;24.786;2023-07-31T05:18:45;99524.50;;;23.15;100.00
7026;BME280;3554;42.132;24.786;2023-07-31T05:21:11;99437.91;;;23.17;100.00
7026;BME280;3554;42.132;24.786;2023-07-31T05:23:38;99364.50;;;23.21;100.00
7026;BME280;3554;42.132;24.786;2023-07-31T05:26:06;99267.53;;;23.30;100.00
7026;BME280;3554;42.132;24.786;2023-07-31T05:28:34;99206.69;;;23.52;100.00
7026;BME280;3554;42.132;24.786;2023-07-31T05:31:03;99167.59;;;23.78;100.00
7026;BME280;3554;42.132;24.786;2023-07-31T05:33:30;99136.94;;;23.99;100.00
7026;BME280;3554;42.132;24.786;2023-07-31T05:35:57;99082.44;;;24.18;100.00
7026;BME280;3554;42.132;24.786;2023-07-31T05:38:24;99054.88;;;24.43;100.00
7026;BME280;3554;42.132;24.786;2023-07-31T05:40:51;99005.69;;;24.44;100.00
7026;BME280;3554;42.132;24.786;2023-07-31T05:43:18;98959.56;;;24.50;100.00
7026;BME280;3554;42.132;24.786;2023-07-31T05:45:47;98903.00;;;24.71;100.00
7026;BME280;3554;42.132;24.786;2023-07-31T05:48:14;98873.09;;;25.15;100.00
7026;BME280;3554;42.132;24.786;2023-07-31T05:50:40;98856.03;;;25.81;100.00
7026;BME280;3554;42.132;24.786;2023-07-31T05:53:07;98804.28;;;26.19;100.00
7026;BME280;3554;42.132;24.786;2023-07-31T05:55:35;98804.00;;;26.44;100.00
7026;BME280;3554;42.132;24.786;2023-07-31T05:58:02;98786.66;;;26.24;100.00
7026;BME280;3554;42.132;24.786;2023-07-31T06:00:29;98785.97;;;25.84;100.00
7026;BME280;3554;42.132;24.786;2023-07-31T06:02:57;98788.28;;;25.87;100.00
7026;BME280;3554;42.132;24.786;2023-07-31T06:05:24;98780.22;;;25.95;100.00
7026;BME280;3554;42.132;24.786;2023-07-31T06:07:51;98773.44;;;26.45;100.00
7026;BME280;3554;42.132;24.786;2023-07-31T06:10:18;98766.38;;;26.53;100.00
7026;BME280;3554;42.132;24.786;2023-07-31T06:12:45;98767.38;;;27.05;100.00
7026;BME280;3554;42.132;24.786;2023-07-31T06:15:12;98760.94;;;27.28;100.00
7026;BME280;3554;42.132;24.786;2023-07-31T06:17:39;98757.13;;;27.75;100.00
7026;BME280;3554;42.132;24.786;2023-07-31T06:20:09;98756.31;;;28.03;100.00
7026;BME280;3554;42.132;24.786;2023-07-31T06:22:36;98753.97;;;27.71;100.00
7026;BME280;3554;42.132;24.786;2023-07-31T06:25:03;98754.09;;;27.92;100.00
7026;BME280;3554;42.132;24.786;2023-07-31T06:27:30;98752.09;;;28.30;100.00
7026;BME280;3554;42.132;24.786;2023-07-31T06:29:57;98764.47;;;28.45;100.00
7026;BME280;3554;42.132;24.786;2023-07-31T06:32:24;98756.00;;;27.98;100.00
7026;BME280;3554;42.132;24.786;2023-07-31T06:34:50;98757.00;;;27.68;100.00
7026;BME280;3554;42.132;24.786;2023-07-31T06:37:19;98749.78;;;27.39;100.00
7026;BME280;3554;42.132;24.786;2023-07-31T06:39:45;98759.97;;;27.07;100.00
7026;BME280;3554;42.132;24.786;2023-07-31T06:42:12;98759.88;;;27.37;100.00
7026;BME280;3554;42.132;24.786;2023-07-31T06:44:39;98752.09;;;27.86;100.00
7026;BME280;3554;42.132;24.786;2023-07-31T06:47:09;98730.41;;;27.73;100.00
7026;BME280;3554;42.132;24.786;2023-07-31T06:49:36;98738.28;;;27.75;100.00
7026;BME280;3554;42.132;24.786;2023-07-31T06:52:03;98746.28;;;27.97;100.00
7026;BME280;3554;42.132;24.786;2023-07-31T06:54:31;98747.97;;;28.34;100.00
7026;BME280;3554;42.132;24.786;2023-07-31T06:56:58;98746.56;;;28.38;100.00
7026;BME280;3554;42.132;24.786;2023-07-31T06:59:25;98745.84;;;28.29;100.00
7026;BME280;3554;42.132;24.786;2023-07-31T07:01:52;98745.28;;;28.34;100.00
7026;BME280;3554;42.132;24.786;2023-07-31T07:04:18;98748.47;;;28.23;100.00
7026;BME280;3554;42.132;24.786;2023-07-31T07:06:45;98740.88;;;28.47;100.00
7026;BME280;3554;42.132;24.786;2023-07-31T07:09:12;98755.09;;;28.77;100.00
7026;BME280;3554;42.132;24.786;2023-07-31T07:11:42;98740.22;;;29.02;100.00
7026;BME280;3554;42.132;24.786;2023-07-31T07:14:09;98735.53;;;29.11;100.00
7026;BME280;3554;42.132;24.786;2023-07-31T07:16:36;98761.81;;;29.09;100.00
7026;BME280;3554;42.132;24.786;2023-07-31T07:19:03;98760.03;;;28.95;100.00
7026;BME280;3554;42.132;24.786;2023-07-31T07:21:29;98758.31;;;28.87;100.00
7026;BME280;3554;42.132;24.786;2023-07-31T07:23:56;98755.88;;;28.92;100.00
7026;BME280;3554;42.132;24.786;2023-07-31T07:26:23;98757.13;;;28.96;100.00
7026;BME280;3554;42.132;24.786;2023-07-31T07:28:51;98749.69;;;29.19;100.00
7026;BME280;3554;42.132;24.786;2023-07-31T07:31:18;98750.66;;;29.33;100.00
7026;BME280;3554;42.132;24.786;2023-07-31T07:33:45;98739.47;;;29.64;100.00
7026;BME280;3554;42.132;24.786;2023-07-31T07:36:12;98760.00;;;29.65;100.00
7026;BME280;3554;42.132;24.786;2023-07-31T07:38:38;98751.88;;;29.58;100.00
7026;BME280;3554;42.132;24.786;2023-07-31T07:41:06;98746.78;;;29.70;100.00
7026;BME280;3554;42.132;24.786;2023-07-31T07:43:33;98755.91;;;29.69;100.00
7026;BME280;3554;42.132;24.786;2023-07-31T07:46:01;98756.22;;;29.59;100.00
7026;BME280;3554;42.132;24.786;2023-07-31T07:48:28;98748.81;;;29.68;100.00
7026;BME280;3554;42.132;24.786;2023-07-31T07:50:55;98728.41;;;29.59;100.00
7026;BME280;3554;42.132;24.786;2023-07-31T07:53:21;98747.59;;;29.42;100.00
7026;BME280;3554;42.132;24.786;2023-07-31T07:55:48;98747.28;;;29.80;100.00
7026;BME280;3554;42.132;24.786;2023-07-31T07:58:15;98750.22;;;29.91;100.00
7026;BME280;3554;42.132;24.786;2023-07-31T08:00:42;98749.28;;;29.71;100.00
7026;BME280;3554;42.132;24.786;2023-07-31T08:03:16;98747.34;;;29.65;100.00
7026;BME280;3554;42.132;24.786;2023-07-31T08:05:43;98738.41;;;29.65;100.00
7026;BME280;3554;42.132;24.786;2023-07-31T08:08:14;98752.22;;;29.48;100.00
7026;BME280;3554;42.132;24.786;2023-07-31T08:10:41;98742.88;;;29.72;100.00
7026;BME280;3554;42.132;24.786;2023-07-31T08:13:09;98741.72;;;29.94;100.00
7026;BME280;3554;42.132;24.786;2023-07-31T08:15:36;98744.72;;;29.72;100.00
7026;BME280;3554;42.132;24.786;2023-07-31T08:18:03;98734.03;;;29.91;100.00
7026;BME280;3554;42.132;24.786;2023-07-31T08:20:31;98735.31;;;29.68;100.00
7026;BME280;3554;42.132;24.786;2023-07-31T08:22:58;98748.25;;;29.72;100.00
7026;BME280;3554;42.132;24.786;2023-07-31T08:25:25;98739.19;;;29.86;100.00
7026;BME280;3554;42.132;24.786;2023-07-31T08:27:52;98730.44;;;29.78;100.00
7026;BME280;3554;42.132;24.786;2023-07-31T08:30:19;98729.72;;;30.03;100.00
7026;BME280;3554;42.132;24.786;2023-07-31T08:32:45;98733.44;;;30.36;100.00
7026;BME280;3554;42.132;24.786;2023-07-31T08:35:12;98741.09;;;30.33;100.00
7026;BME280;3554;42.132;24.786;2023-07-31T08:37:40;98723.75;;;30.21;100.00
7026;BME280;3554;42.132;24.786;2023-07-31T08:40:08;98710.97;;;30.29;100.00
7026;BME280;3554;42.132;24.786;2023-07-31T08:42:43;98731.63;;;30.63;100.00
7026;BME280;3554;42.132;24.786;2023-07-31T08:45:13;98740.56;;;30.70;100.00
7026;BME280;3554;42.132;24.786;2023-07-31T08:47:41;98742.44;;;30.63;100.00
7026;BME280;3554;42.132;24.786;2023-07-31T08:50:09;98723.53;;;30.09;100.00
7026;BME280;3554;42.132;24.786;2023-07-31T08:52:37;98718.22;;;30.35;100.00
7026;BME280;3554;42.132;24.786;2023-07-31T08:55:07;98738.47;;;30.59;100.00
7026;BME280;3554;42.132;24.786;2023-07-31T08:57:35;98752.03;;;30.85;100.00
7026;BME280;3554;42.132;24.786;2023-07-31T09:00:03;98742.09;;;31.05;100.00
7026;BME280;3554;42.132;24.786;2023-07-31T09:02:34;98747.09;;;31.15;100.00
7026;BME280;3554;42.132;24.786;2023-07-31T09:05:06;98746.25;;;31.53;100.00
7026;BME280;3554;42.132;24.786;2023-07-31T09:07:34;98744.13;;;31.82;100.00
7026;BME280;3554;42.132;24.786;2023-07-31T09:10:01;98740.16;;;31.91;100.00
7026;BME280;3554;42.132;24.786;2023-07-31T09:12:29;98739.72;;;32.00;100.00
7026;BME280;3554;42.132;24.786;2023-07-31T09:14:57;98751.63;;;31.86;100.00
7026;BME280;3554;42.132;24.786;2023-07-31T09:17:30;98755.16;;;31.80;100.00
7026;BME280;3554;42.132;24.786;2023-07-31T09:19:57;98751.22;;;30.98;100.00
7026;BME280;3554;42.132;24.786;2023-07-31T09:22:34;98721.91;;;31.27;100.00
7026;BME280;3554;42.132;24.786;2023-07-31T09:25:14;98748.72;;;31.75;100.00
7026;BME280;3554;42.132;24.786;2023-07-31T09:27:51;98738.69;;;31.82;100.00
7026;BME280;3554;42.132;24.786;2023-07-31T09:30:18;98712.34;;;30.99;100.00
7026;BME280;3554;42.132;24.786;2023-07-31T09:32:46;98731.66;;;31.54;100.00
7026;BME280;3554;42.132;24.786;2023-07-31T09:35:18;98729.34;;;31.91;100.00
7026;BME280;3554;42.132;24.786;2023-07-31T09:37:49;98736.13;;;32.06;100.00
7026;BME280;3554;42.132;24.786;2023-07-31T09:40:25;98728.91;;;32.00;100.00
7026;BME280;3554;42.132;24.786;2023-07-31T09:42:56;98729.03;;;32.12;100.00
7026;BME280;3554;42.132;24.786;2023-07-31T09:45:24;98726.94;;;32.14;100.00
7026;BME280;3554;42.132;24.786;2023-07-31T09:47:51;98702.69;;;31.75;100.00
7026;BME280;3554;42.132;24.786;2023-07-31T09:52:45;98723.97;;;31.19;100.00
7026;BME280;3554;42.132;24.786;2023-07-31T09:55:12;98720.25;;;31.52;100.00
7026;BME280;3554;42.132;24.786;2023-07-31T09:57:40;98735.69;;;32.16;100.00
7026;BME280;3554;42.132;24.786;2023-07-31T10:00:10;98728.81;;;32.64;100.00
7026;BME280;3554;42.132;24.786;2023-07-31T10:02:38;98722.28;;;33.03;100.00
7026;BME280;3554;42.132;24.786;2023-07-31T10:05:06;98732.16;;;32.91;100.00
7026;BME280;3554;42.132;24.786;2023-07-31T10:07:36;98727.06;;;32.32;100.00
7026;BME280;3554;42.132;24.786;2023-07-31T10:10:04;98709.66;;;32.59;100.00
7026;BME280;3554;42.132;24.786;2023-07-31T10:12:33;98723.88;;;32.86;100.00
7026;BME280;3554;42.132;24.786;2023-07-31T10:15:01;98720.25;;;33.23;98.59
7026;BME280;3554;42.132;24.786;2023-07-31T10:17:30;98715.25;;;32.64;97.81
7026;BME280;3554;42.132;24.786;2023-07-31T10:19:58;98721.75;;;32.12;100.00
7026;BME280;3554;42.132;24.786;2023-07-31T10:22:26;98705.69;;;32.17;100.00
7026;BME280;3554;42.132;24.786;2023-07-31T10:24:55;98706.19;;;31.95;100.00
7026;BME280;3554;42.132;24.786;2023-07-31T10:27:24;98703.53;;;31.69;100.00
7026;BME280;3554;42.132;24.786;2023-07-31T10:29:52;98702.94;;;32.24;100.00
7026;BME280;3554;42.132;24.786;2023-07-31T10:32:20;98697.19;;;32.51;100.00
7026;BME280;3554;42.132;24.786;2023-07-31T10:34:49;98708.41;;;32.86;100.00
7026;BME280;3554;42.132;24.786;2023-07-31T10:37:20;98659.09;;;32.71;100.00
7026;BME280;3554;42.132;24.786;2023-07-31T10:39:59;98683.88;;;32.43;98.63
7026;BME280;3554;42.132;24.786;2023-07-31T10:42:33;98680.44;;;32.23;100.00
7026;BME280;3554;42.132;24.786;2023-07-31T10:45:03;98671.56;;;32.47;100.00
7026;BME280;3554;42.132;24.786;2023-07-31T10:47:30;98664.75;;;32.32;100.00
7026;BME280;3554;42.132;24.786;2023-07-31T10:50:28;98657.16;;;32.47;100.00
7026;BME280;3554;42.132;24.786;2023-07-31T10:52:58;98653.84;;;32.76;100.00
7026;BME280;3554;42.132;24.786;2023-07-31T10:55:28;98656.53;;;32.76;100.00
7026;BME280;3554;42.132;24.786;2023-07-31T10:57:56;98665.13;;;32.73;100.00
7026;BME280;3554;42.132;24.786;2023-07-31T11:00:26;98658.63;;;32.49;100.00
7026;BME280;3554;42.132;24.786;2023-07-31T11:03:01;98654.31;;;32.35;100.00
7026;BME280;3554;42.132;24.786;2023-07-31T11:05:47;98624.75;;;31.13;100.00
7026;BME280;3554;42.132;24.786;2023-07-31T11:08:16;98637.84;;;31.35;100.00
7026;BME280;3554;42.132;24.786;2023-07-31T11:10:45;98625.31;;;31.47;100.00
7026;BME280;3554;42.132;24.786;2023-07-31T11:13:12;98643.44;;;31.40;100.00
7026;BME280;3554;42.132;24.786;2023-07-31T11:15:39;98644.25;;;31.47;100.00
7026;BME280;3554;42.132;24.786;2023-07-31T11:18:06;98647.44;;;31.38;100.00
7026;BME280;3554;42.132;24.786;2023-07-31T11:20:35;98643.03;;;31.43;100.00
7026;BME280;3554;42.132;24.786;2023-07-31T11:23:06;98639.72;;;30.76;100.00
7026;BME280;3554;42.132;24.786;2023-07-31T11:25:33;98639.22;;;30.20;100.00
7026;BME280;3554;42.132;24.786;2023-07-31T11:28:03;98656.03;;;28.79;100.00
7026;BME280;3554;42.132;24.786;2023-07-31T11:30:30;98652.94;;;28.82;100.00
7026;BME280;3554;42.132;24.786;2023-07-31T11:32:57;98650.88;;;28.57;100.00
7026;BME280;3554;42.132;24.786;2023-07-31T11:35:24;98618.16;;;27.82;100.00
7026;BME280;3554;42.132;24.786;2023-07-31T11:37:51;98631.47;;;27.39;100.00
7026;BME280;3554;42.132;24.786;2023-07-31T11:40:19;98624.59;;;27.52;100.00
7026;BME280;3554;42.132;24.786;2023-07-31T11:42:46;98640.88;;;27.79;100.00
7026;BME280;3554;42.132;24.786;2023-07-31T11:45:13;98618.88;;;27.90;100.00
7026;BME280;3554;42.132;24.786;2023-07-31T11:47:40;98641.34;;;28.18;100.00
7026;BME280;3554;42.132;24.786;2023-07-31T11:50:10;98644.88;;;28.19;100.00
7026;BME280;3554;42.132;24.786;2023-07-31T11:52:41;98619.00;;;28.39;100.00
7026;BME280;3554;42.132;24.786;2023-07-31T11:55:10;98624.25;;;28.68;100.00
7026;BME280;3554;42.132;24.786;2023-07-31T11:57:39;98627.00;;;28.54;100.00
7026;BME280;3554;42.132;24.786;2023-07-31T12:00:09;98626.00;;;28.55;100.00
7026;BME280;3554;42.132;24.786;2023-07-31T12:02:38;98623.31;;;28.82;100.00
7026;BME280;3554;42.132;24.786;2023-07-31T12:05:06;98621.03;;;29.07;100.00
7026;BME280;3554;42.132;24.786;2023-07-31T12:07:44;98618.50;;;29.33;100.00
7026;BME280;3554;42.132;24.786;2023-07-31T12:10:11;98623.03;;;29.67;100.00
7026;BME280;3554;42.132;24.786;2023-07-31T12:12:39;98597.91;;;29.66;100.00
7026;BME280;3554;42.132;24.786;2023-07-31T12:15:14;98615.09;;;29.59;100.00
7026;BME280;3554;42.132;24.786;2023-07-31T12:17:41;98605.09;;;29.87;100.00
7026;BME280;3554;42.132;24.786;2023-07-31T12:20:09;98616.47;;;29.82;100.00
7026;BME280;3554;42.132;24.786;2023-07-31T12:22:36;98594.28;;;29.87;100.00
7026;BME280;3554;42.132;24.786;2023-07-31T12:25:04;98604.25;;;29.93;100.00
7026;BME280;3554;42.132;24.786;2023-07-31T12:27:33;98605.13;;;30.19;100.00
7026;BME280;3554;42.132;24.786;2023-07-31T12:30:01;98609.78;;;30.38;100.00
7026;BME280;3554;42.132;24.786;2023-07-31T12:32:30;98592.13;;;30.62;100.00
7026;BME280;3554;42.132;24.786;2023-07-31T12:34:59;98600.22;;;31.01;100.00
7026;BME280;3554;42.132;24.786;2023-07-31T12:37:28;98588.75;;;31.12;100.00
7026;BME280;3554;42.132;24.786;2023-07-31T12:39:55;98558.84;;;30.94;100.00
7026;BME280;3554;42.132;24.786;2023-07-31T12:42:26;98582.78;;;30.97;100.00
7026;BME280;3554;42.132;24.786;2023-07-31T12:44:53;98593.59;;;30.97;100.00
7026;BME280;3554;42.132;24.786;2023-07-31T12:47:21;98599.16;;;31.15;100.00
7026;BME280;3554;42.132;24.786;2023-07-31T12:49:47;98592.28;;;31.19;100.00
7026;BME280;3554;42.132;24.786;2023-07-31T12:52:14;98585.28;;;30.86;100.00
7026;BME280;3554;42.132;24.786;2023-07-31T12:54:41;98580.69;;;30.93;100.00
7026;BME280;3554;42.132;24.786;2023-07-31T12:57:08;98571.75;;;30.79;100.00
7026;BME280;3554;42.132;24.786;2023-07-31T12:59:35;98579.84;;;30.73;100.00
7026;BME280;3554;42.132;24.786;2023-07-31T13:02:01;98563.03;;;30.31;100.00
7026;BME280;3554;42.132;24.786;2023-07-31T13:04:29;98579.41;;;30.23;100.00
7026;BME280;3554;42.132;24.786;2023-07-31T13:06:56;98575.66;;;30.18;100.00
7026;BME280;3554;42.132;24.786;2023-07-31T13:09:23;98563.63;;;30.27;100.00